sensor_id;sensor_type;location;lat;lon;timestamp;P1;durP1;ratioP1;P2;durP2;ratioP2
17686;SDS011;8962;52.538;13.266;2024-02-26T00:00:43;13.82;;;6.90;;
17686;SDS011;8962;52.538;13.266;2024-02-26T00:03:11;10.45;;;6.45;;
17686;SDS011;8962;52.538;13.266;2024-02-26T00:05:40;15.60;;;7.68;;
17686;SDS011;8962;52.538;13.266;2024-02-26T00:08:07;11.00;;;6.70;;
17686;SDS011;8962;52.538;13.266;2024-02-26T00:10:34;12.18;;;7.28;;
17686;SDS011;8962;52.538;13.266;2024-02-26T00:13:02;13.18;;;7.45;;
17686;SDS011;8962;52.538;13.266;2024-02-26T00:15:29;14.50;;;8.15;;
17686;SDS011;8962;52.538;13.266;2024-02-26T00:17:56;16.13;;;8.27;;
17686;SDS011;8962;52.538;13.266;2024-02-26T00:20:23;16.33;;;7.80;;
17686;SDS011;8962;52.538;13.266;2024-02-26T00:22:52;14.50;;;8.18;;
17686;SDS011;8962;52.538;13.266;2024-02-26T00:25:19;14.57;;;7.85;;
17686;SDS011;8962;52.538;13.266;2024-02-26T00:27:46;13.70;;;7.68;;
17686;SDS011;8962;52.538;13.266;2024-02-26T00:30:14;15.10;;;8.25;;
17686;SDS011;8962;52.538;13.266;2024-02-26T00:32:41;15.07;;;8.73;;
17686;SDS011;8962;52.538;13.266;2024-02-26T00:35:08;18.90;;;8.98;;
17686;SDS011;8962;52.538;13.266;2024-02-26T00:37:36;16.23;;;9.00;;
17686;SDS011;8962;52.538;13.266;2024-02-26T00:40:05;14.13;;;8.23;;
17686;SDS011;8962;52.538;13.266;2024-02-26T00:42:34;15.40;;;8.73;;
17686;SDS011;8962;52.538;13.266;2024-02-26T00:45:01;14.93;;;8.57;;
17686;SDS011;8962;52.538;13.266;2024-02-26T00:47:29;18.17;;;8.75;;
17686;SDS011;8962;52.538;13.266;2024-02-26T00:49:56;16.25;;;9.40;;
17686;SDS011;8962;52.538;13.266;2024-02-26T00:52:23;19.15;;;9.10;;
17686;SDS011;8962;52.538;13.266;2024-02-26T00:54:51;15.45;;;8.45;;
17686;SDS011;8962;52.538;13.266;2024-02-26T00:57:19;19.75;;;10.25;;
17686;SDS011;8962;52.538;13.266;2024-02-26T00:59:47;15.68;;;9.95;;
17686;SDS011;8962;52.538;13.266;2024-02-26T01:02:14;16.63;;;9.70;;
17686;SDS011;8962;52.538;13.266;2024-02-26T01:04:41;18.70;;;10.48;;
17686;SDS011;8962;52.538;13.266;2024-02-26T01:07:08;16.98;;;9.43;;
17686;SDS011;8962;52.538;13.266;2024-02-26T01:09:35;18.08;;;9.82;;
17686;SDS011;8962;52.538;13.266;2024-02-26T01:12:03;18.25;;;10.20;;
17686;SDS011;8962;52.538;13.266;2024-02-26T01:14:32;17.40;;;9.85;;
17686;SDS011;8962;52.538;13.266;2024-02-26T01:16:59;19.80;;;10.95;;
17686;SDS011;8962;52.538;13.266;2024-02-26T01:19:26;16.98;;;10.00;;
17686;SDS011;8962;52.538;13.266;2024-02-26T01:21:53;17.13;;;10.25;;
17686;SDS011;8962;52.538;13.266;2024-02-26T01:24:20;18.05;;;10.30;;
17686;SDS011;8962;52.538;13.266;2024-02-26T01:26:48;18.85;;;10.90;;
17686;SDS011;8962;52.538;13.266;2024-02-26T01:29:15;17.45;;;10.82;;
17686;SDS011;8962;52.538;13.266;2024-02-26T01:31:44;18.20;;;11.35;;
17686;SDS011;8962;52.538;13.266;2024-02-26T01:34:11;18.85;;;10.95;;
17686;SDS011;8962;52.538;13.266;2024-02-26T01:36:39;19.60;;;11.40;;
17686;SDS011;8962;52.538;13.266;2024-02-26T01:39:06;24.20;;;11.80;;
17686;SDS011;8962;52.538;13.266;2024-02-26T01:41:37;22.00;;;11.95;;
17686;SDS011;8962;52.538;13.266;2024-02-26T01:44:05;20.80;;;11.75;;
17686;SDS011;8962;52.538;13.266;2024-02-26T01:46:32;19.92;;;11.57;;
17686;SDS011;8962;52.538;13.266;2024-02-26T01:49:03;21.35;;;11.15;;
17686;SDS011;8962;52.538;13.266;2024-02-26T01:51:31;16.98;;;10.80;;
17686;SDS011;8962;52.538;13.266;2024-02-26T01:53:59;18.55;;;11.68;;
17686;SDS011;8962;52.538;13.266;2024-02-26T01:56:29;21.52;;;12.25;;
17686;SDS011;8962;52.538;13.266;2024-02-26T01:58:58;20.42;;;12.02;;
17686;SDS011;8962;52.538;13.266;2024-02-26T02:01:27;22.60;;;12.65;;
17686;SDS011;8962;52.538;13.266;2024-02-26T02:03:58;25.08;;;13.43;;
17686;SDS011;8962;52.538;13.266;2024-02-26T02:06:27;26.15;;;14.50;;
17686;SDS011;8962;52.538;13.266;2024-02-26T02:08:55;25.65;;;14.73;;
17686;SDS011;8962;52.538;13.266;2024-02-26T02:11:23;25.92;;;15.77;;
17686;SDS011;8962;52.538;13.266;2024-02-26T02:13:50;27.50;;;15.73;;
17686;SDS011;8962;52.538;13.266;2024-02-26T02:16:17;26.00;;;15.93;;
17686;SDS011;8962;52.538;13.266;2024-02-26T02:18:44;24.80;;;14.57;;
17686;SDS011;8962;52.538;13.266;2024-02-26T02:21:13;21.15;;;13.65;;
17686;SDS011;8962;52.538;13.266;2024-02-26T02:23:40;21.98;;;13.98;;
17686;SDS011;8962;52.538;13.266;2024-02-26T02:26:11;24.00;;;14.35;;
17686;SDS011;8962;52.538;13.266;2024-02-26T02:28:39;23.83;;;14.15;;
17686;SDS011;8962;52.538;13.266;2024-02-26T02:31:06;23.48;;;13.80;;
17686;SDS011;8962;52.538;13.266;2024-02-26T02:33:37;23.80;;;13.63;;
17686;SDS011;8962;52.538;13.266;2024-02-26T02:36:04;24.45;;;13.98;;
17686;SDS011;8962;52.538;13.266;2024-02-26T02:38:36;21.52;;;13.55;;
17686;SDS011;8962;52.538;13.266;2024-02-26T02:41:04;22.65;;;14.02;;
17686;SDS011;8962;52.538;13.266;2024-02-26T02:43:31;22.90;;;14.00;;
17686;SDS011;8962;52.538;13.266;2024-02-26T02:45:59;23.60;;;13.98;;
17686;SDS011;8962;52.538;13.266;2024-02-26T02:48:26;23.08;;;14.23;;
17686;SDS011;8962;52.538;13.266;2024-02-26T02:50:53;23.20;;;14.40;;
17686;SDS011;8962;52.538;13.266;2024-02-26T02:53:20;22.92;;;13.95;;
17686;SDS011;8962;52.538;13.266;2024-02-26T02:55:48;24.05;;;14.70;;
17686;SDS011;8962;52.538;13.266;2024-02-26T02:58:16;24.10;;;14.25;;
17686;SDS011;8962;52.538;13.266;2024-02-26T03:00:43;19.70;;;14.13;;
17686;SDS011;8962;52.538;13.266;2024-02-26T03:03:10;21.98;;;14.13;;
17686;SDS011;8962;52.538;13.266;2024-02-26T03:05:37;21.95;;;13.85;;
17686;SDS011;8962;52.538;13.266;2024-02-26T03:08:05;20.50;;;13.52;;
17686;SDS011;8962;52.538;13.266;2024-02-26T03:10:33;21.17;;;12.68;;
17686;SDS011;8962;52.538;13.266;2024-02-26T03:13:02;23.75;;;14.13;;
17686;SDS011;8962;52.538;13.266;2024-02-26T03:15:30;31.05;;;13.48;;
17686;SDS011;8962;52.538;13.266;2024-02-26T03:17:57;25.00;;;13.85;;
17686;SDS011;8962;52.538;13.266;2024-02-26T03:20:24;22.17;;;13.57;;
17686;SDS011;8962;52.538;13.266;2024-02-26T03:22:52;20.88;;;13.73;;
17686;SDS011;8962;52.538;13.266;2024-02-26T03:25:19;20.67;;;14.13;;
17686;SDS011;8962;52.538;13.266;2024-02-26T03:27:46;21.17;;;13.27;;
17686;SDS011;8962;52.538;13.266;2024-02-26T03:30:14;21.55;;;13.70;;
17686;SDS011;8962;52.538;13.266;2024-02-26T03:32:42;19.90;;;13.23;;
17686;SDS011;8962;52.538;13.266;2024-02-26T03:35:09;21.42;;;13.52;;
17686;SDS011;8962;52.538;13.266;2024-02-26T03:37:36;22.80;;;12.35;;
17686;SDS011;8962;52.538;13.266;2024-02-26T03:40:04;21.38;;;12.45;;
17686;SDS011;8962;52.538;13.266;2024-02-26T03:42:32;19.60;;;12.82;;
17686;SDS011;8962;52.538;13.266;2024-02-26T03:44:59;20.17;;;13.15;;
17686;SDS011;8962;52.538;13.266;2024-02-26T03:47:28;20.27;;;12.70;;
17686;SDS011;8962;52.538;13.266;2024-02-26T03:49:55;22.52;;;13.35;;
17686;SDS011;8962;52.538;13.266;2024-02-26T03:52:24;19.35;;;12.90;;
17686;SDS011;8962;52.538;13.266;2024-02-26T03:54:51;21.33;;;12.23;;
17686;SDS011;8962;52.538;13.266;2024-02-26T03:57:18;18.05;;;12.45;;
17686;SDS011;8962;52.538;13.266;2024-02-26T03:59:45;19.85;;;12.70;;
17686;SDS011;8962;52.538;13.266;2024-02-26T04:02:12;17.27;;;11.98;;
17686;SDS011;8962;52.538;13.266;2024-02-26T04:04:41;17.23;;;11.70;;
17686;SDS011;8962;52.538;13.266;2024-02-26T04:07:08;22.33;;;13.05;;
17686;SDS011;8962;52.538;13.266;2024-02-26T04:09:36;18.90;;;12.45;;
17686;SDS011;8962;52.538;13.266;2024-02-26T04:12:03;19.00;;;11.75;;
17686;SDS011;8962;52.538;13.266;2024-02-26T04:14:31;19.05;;;12.25;;
17686;SDS011;8962;52.538;13.266;2024-02-26T04:16:58;18.73;;;11.65;;
17686;SDS011;8962;52.538;13.266;2024-02-26T04:19:25;17.58;;;12.23;;
17686;SDS011;8962;52.538;13.266;2024-02-26T04:21:54;17.02;;;11.43;;
17686;SDS011;8962;52.538;13.266;2024-02-26T04:24:23;19.05;;;11.90;;
17686;SDS011;8962;52.538;13.266;2024-02-26T04:26:50;16.85;;;11.68;;
17686;SDS011;8962;52.538;13.266;2024-02-26T04:29:17;18.10;;;11.75;;
17686;SDS011;8962;52.538;13.266;2024-02-26T04:31:44;17.35;;;11.68;;
17686;SDS011;8962;52.538;13.266;2024-02-26T04:34:12;19.65;;;12.10;;
17686;SDS011;8962;52.538;13.266;2024-02-26T04:36:39;17.65;;;11.43;;
17686;SDS011;8962;52.538;13.266;2024-02-26T04:39:08;16.17;;;10.55;;
17686;SDS011;8962;52.538;13.266;2024-02-26T04:41:36;17.83;;;11.00;;
17686;SDS011;8962;52.538;13.266;2024-02-26T04:44:03;17.50;;;11.20;;
17686;SDS011;8962;52.538;13.266;2024-02-26T04:46:30;16.40;;;10.68;;
17686;SDS011;8962;52.538;13.266;2024-02-26T04:48:58;14.70;;;10.00;;
17686;SDS011;8962;52.538;13.266;2024-02-26T04:51:25;15.98;;;9.98;;
17686;SDS011;8962;52.538;13.266;2024-02-26T04:53:52;16.48;;;10.65;;
17686;SDS011;8962;52.538;13.266;2024-02-26T04:56:21;13.25;;;10.27;;
17686;SDS011;8962;52.538;13.266;2024-02-26T04:58:48;14.70;;;9.65;;
17686;SDS011;8962;52.538;13.266;2024-02-26T05:01:15;15.85;;;10.68;;
17686;SDS011;8962;52.538;13.266;2024-02-26T05:03:44;14.77;;;10.20;;
17686;SDS011;8962;52.538;13.266;2024-02-26T05:06:11;15.68;;;9.57;;
17686;SDS011;8962;52.538;13.266;2024-02-26T05:08:38;16.42;;;9.98;;
17686;SDS011;8962;52.538;13.266;2024-02-26T05:11:05;16.50;;;10.50;;
17686;SDS011;8962;52.538;13.266;2024-02-26T05:13:33;18.42;;;10.23;;
17686;SDS011;8962;52.538;13.266;2024-02-26T05:16:01;16.83;;;10.82;;
17686;SDS011;8962;52.538;13.266;2024-02-26T05:18:28;13.15;;;9.63;;
17686;SDS011;8962;52.538;13.266;2024-02-26T05:20:55;13.38;;;9.70;;
17686;SDS011;8962;52.538;13.266;2024-02-26T05:23:22;15.43;;;10.10;;
17686;SDS011;8962;52.538;13.266;2024-02-26T05:25:49;14.90;;;10.05;;
17686;SDS011;8962;52.538;13.266;2024-02-26T05:28:16;17.30;;;10.77;;
17686;SDS011;8962;52.538;13.266;2024-02-26T05:30:47;15.65;;;10.30;;
17686;SDS011;8962;52.538;13.266;2024-02-26T05:33:14;14.38;;;9.70;;
17686;SDS011;8962;52.538;13.266;2024-02-26T05:35:41;13.75;;;9.95;;
17686;SDS011;8962;52.538;13.266;2024-02-26T05:38:08;18.25;;;9.77;;
17686;SDS011;8962;52.538;13.266;2024-02-26T05:40:35;16.63;;;10.57;;
17686;SDS011;8962;52.538;13.266;2024-02-26T05:43:03;18.17;;;10.35;;
17686;SDS011;8962;52.538;13.266;2024-02-26T05:45:30;14.88;;;9.90;;
17686;SDS011;8962;52.538;13.266;2024-02-26T05:48:00;17.33;;;10.45;;
17686;SDS011;8962;52.538;13.266;2024-02-26T05:50:30;17.23;;;9.60;;
17686;SDS011;8962;52.538;13.266;2024-02-26T05:52:57;17.20;;;10.23;;
17686;SDS011;8962;52.538;13.266;2024-02-26T05:55:24;17.15;;;10.10;;
17686;SDS011;8962;52.538;13.266;2024-02-26T05:57:51;15.75;;;10.20;;
17686;SDS011;8962;52.538;13.266;2024-02-26T06:00:19;15.20;;;9.82;;
17686;SDS011;8962;52.538;13.266;2024-02-26T06:02:46;18.35;;;11.10;;
17686;SDS011;8962;52.538;13.266;2024-02-26T06:05:15;19.40;;;11.80;;
17686;SDS011;8962;52.538;13.266;2024-02-26T06:07:43;20.98;;;10.85;;
17686;SDS011;8962;52.538;13.266;2024-02-26T06:10:10;19.13;;;11.10;;
17686;SDS011;8962;52.538;13.266;2024-02-26T06:12:39;18.60;;;11.45;;
17686;SDS011;8962;52.538;13.266;2024-02-26T06:15:06;17.40;;;11.85;;
17686;SDS011;8962;52.538;13.266;2024-02-26T06:17:34;17.55;;;11.70;;
17686;SDS011;8962;52.538;13.266;2024-02-26T06:20:01;16.77;;;11.27;;
17686;SDS011;8962;52.538;13.266;2024-02-26T06:22:31;15.88;;;10.93;;
17686;SDS011;8962;52.538;13.266;2024-02-26T06:24:58;16.90;;;11.48;;
17686;SDS011;8962;52.538;13.266;2024-02-26T06:27:25;17.75;;;11.15;;
17686;SDS011;8962;52.538;13.266;2024-02-26T06:29:52;19.52;;;11.80;;
17686;SDS011;8962;52.538;13.266;2024-02-26T06:32:19;17.67;;;11.85;;
17686;SDS011;8962;52.538;13.266;2024-02-26T06:34:48;18.92;;;11.88;;
17686;SDS011;8962;52.538;13.266;2024-02-26T06:37:15;23.95;;;11.98;;
17686;SDS011;8962;52.538;13.266;2024-02-26T06:39:43;21.13;;;13.05;;
17686;SDS011;8962;52.538;13.266;2024-02-26T06:42:11;19.52;;;12.27;;
17686;SDS011;8962;52.538;13.266;2024-02-26T06:44:38;17.73;;;11.68;;
17686;SDS011;8962;52.538;13.266;2024-02-26T06:47:05;18.90;;;11.45;;
17686;SDS011;8962;52.538;13.266;2024-02-26T06:49:32;17.63;;;11.35;;
17686;SDS011;8962;52.538;13.266;2024-02-26T06:51:59;16.70;;;11.73;;
17686;SDS011;8962;52.538;13.266;2024-02-26T06:54:26;18.55;;;12.43;;
17686;SDS011;8962;52.538;13.266;2024-02-26T06:56:55;18.65;;;11.70;;
17686;SDS011;8962;52.538;13.266;2024-02-26T06:59:22;20.60;;;12.57;;
17686;SDS011;8962;52.538;13.266;2024-02-26T07:01:50;19.63;;;12.98;;
17686;SDS011;8962;52.538;13.266;2024-02-26T07:04:17;17.58;;;12.50;;
17686;SDS011;8962;52.538;13.266;2024-02-26T07:06:44;18.02;;;12.60;;
17686;SDS011;8962;52.538;13.266;2024-02-26T07:09:11;18.35;;;12.27;;
17686;SDS011;8962;52.538;13.266;2024-02-26T07:11:39;18.85;;;13.32;;
17686;SDS011;8962;52.538;13.266;2024-02-26T07:14:08;19.85;;;12.52;;
17686;SDS011;8962;52.538;13.266;2024-02-26T07:16:35;20.48;;;13.32;;
17686;SDS011;8962;52.538;13.266;2024-02-26T07:19:04;18.23;;;12.25;;
17686;SDS011;8962;52.538;13.266;2024-02-26T07:21:31;19.45;;;13.02;;
17686;SDS011;8962;52.538;13.266;2024-02-26T07:23:59;21.13;;;13.00;;
17686;SDS011;8962;52.538;13.266;2024-02-26T07:26:26;20.42;;;13.02;;
17686;SDS011;8962;52.538;13.266;2024-02-26T07:28:55;19.13;;;13.23;;
17686;SDS011;8962;52.538;13.266;2024-02-26T07:31:24;19.00;;;12.95;;
17686;SDS011;8962;52.538;13.266;2024-02-26T07:33:51;22.15;;;12.90;;
17686;SDS011;8962;52.538;13.266;2024-02-26T07:36:18;22.10;;;13.65;;
17686;SDS011;8962;52.538;13.266;2024-02-26T07:38:45;21.00;;;13.90;;
17686;SDS011;8962;52.538;13.266;2024-02-26T07:41:12;20.33;;;14.00;;
17686;SDS011;8962;52.538;13.266;2024-02-26T07:43:39;21.67;;;13.57;;
17686;SDS011;8962;52.538;13.266;2024-02-26T07:46:07;20.75;;;13.15;;
17686;SDS011;8962;52.538;13.266;2024-02-26T07:48:39;24.75;;;13.07;;
17686;SDS011;8962;52.538;13.266;2024-02-26T07:51:07;22.38;;;13.70;;
17686;SDS011;8962;52.538;13.266;2024-02-26T07:53:34;22.15;;;13.43;;
17686;SDS011;8962;52.538;13.266;2024-02-26T07:56:01;20.83;;;13.85;;
17686;SDS011;8962;52.538;13.266;2024-02-26T07:58:28;21.17;;;14.07;;
17686;SDS011;8962;52.538;13.266;2024-02-26T08:00:56;20.35;;;14.43;;
17686;SDS011;8962;52.538;13.266;2024-02-26T08:03:23;21.88;;;14.05;;
17686;SDS011;8962;52.538;13.266;2024-02-26T08:05:52;20.58;;;13.75;;
17686;SDS011;8962;52.538;13.266;2024-02-26T08:08:19;22.50;;;14.55;;
17686;SDS011;8962;52.538;13.266;2024-02-26T08:10:46;20.00;;;13.88;;
17686;SDS011;8962;52.538;13.266;2024-02-26T08:13:13;25.58;;;13.88;;
17686;SDS011;8962;52.538;13.266;2024-02-26T08:15:40;22.00;;;14.48;;
17686;SDS011;8962;52.538;13.266;2024-02-26T08:18:08;24.75;;;15.30;;
17686;SDS011;8962;52.538;13.266;2024-02-26T08:20:35;19.73;;;13.95;;
17686;SDS011;8962;52.538;13.266;2024-02-26T08:23:04;25.33;;;15.60;;
17686;SDS011;8962;52.538;13.266;2024-02-26T08:25:31;23.23;;;14.55;;
17686;SDS011;8962;52.538;13.266;2024-02-26T08:27:58;23.75;;;14.85;;
17686;SDS011;8962;52.538;13.266;2024-02-26T08:30:25;22.67;;;14.52;;
17686;SDS011;8962;52.538;13.266;2024-02-26T08:32:52;22.23;;;15.07;;
17686;SDS011;8962;52.538;13.266;2024-02-26T08:35:19;22.77;;;15.23;;
17686;SDS011;8962;52.538;13.266;2024-02-26T08:37:47;22.38;;;14.10;;
17686;SDS011;8962;52.538;13.266;2024-02-26T08:40:15;23.13;;;15.70;;
17686;SDS011;8962;52.538;13.266;2024-02-26T08:42:44;23.48;;;15.55;;
17686;SDS011;8962;52.538;13.266;2024-02-26T08:45:11;20.60;;;14.88;;
17686;SDS011;8962;52.538;13.266;2024-02-26T08:47:38;22.17;;;14.75;;
17686;SDS011;8962;52.538;13.266;2024-02-26T08:50:06;26.60;;;16.45;;
17686;SDS011;8962;52.538;13.266;2024-02-26T08:52:34;22.38;;;15.00;;
17686;SDS011;8962;52.538;13.266;2024-02-26T08:55:02;23.95;;;15.85;;
17686;SDS011;8962;52.538;13.266;2024-02-26T08:57:31;26.50;;;16.05;;
17686;SDS011;8962;52.538;13.266;2024-02-26T08:59:59;25.13;;;15.68;;
17686;SDS011;8962;52.538;13.266;2024-02-26T09:02:26;24.33;;;16.08;;
17686;SDS011;8962;52.538;13.266;2024-02-26T09:04:53;23.75;;;15.88;;
17686;SDS011;8962;52.538;13.266;2024-02-26T09:07:20;24.95;;;15.88;;
17686;SDS011;8962;52.538;13.266;2024-02-26T09:09:47;23.83;;;16.63;;
17686;SDS011;8962;52.538;13.266;2024-02-26T09:12:14;24.85;;;16.30;;
17686;SDS011;8962;52.538;13.266;2024-02-26T09:14:43;22.27;;;16.00;;
17686;SDS011;8962;52.538;13.266;2024-02-26T09:17:10;26.38;;;15.18;;
17686;SDS011;8962;52.538;13.266;2024-02-26T09:19:37;24.08;;;15.38;;
17686;SDS011;8962;52.538;13.266;2024-02-26T09:22:04;25.42;;;16.23;;
17686;SDS011;8962;52.538;13.266;2024-02-26T09:24:31;25.77;;;15.90;;
17686;SDS011;8962;52.538;13.266;2024-02-26T09:26:58;21.65;;;14.50;;
17686;SDS011;8962;52.538;13.266;2024-02-26T09:29:25;22.42;;;15.00;;
17686;SDS011;8962;52.538;13.266;2024-02-26T09:31:54;21.17;;;15.02;;
17686;SDS011;8962;52.538;13.266;2024-02-26T09:34:21;19.85;;;14.80;;
17686;SDS011;8962;52.538;13.266;2024-02-26T09:36:48;26.65;;;15.55;;
17686;SDS011;8962;52.538;13.266;2024-02-26T09:39:15;21.73;;;16.02;;
17686;SDS011;8962;52.538;13.266;2024-02-26T09:41:46;24.85;;;15.23;;
17686;SDS011;8962;52.538;13.266;2024-02-26T09:44:15;22.35;;;16.23;;
17686;SDS011;8962;52.538;13.266;2024-02-26T09:46:46;22.80;;;15.45;;
17686;SDS011;8962;52.538;13.266;2024-02-26T09:49:16;25.55;;;15.50;;
17686;SDS011;8962;52.538;13.266;2024-02-26T09:51:44;19.30;;;14.90;;
17686;SDS011;8962;52.538;13.266;2024-02-26T09:54:14;25.42;;;16.02;;
17686;SDS011;8962;52.538;13.266;2024-02-26T09:56:43;22.92;;;15.95;;
17686;SDS011;8962;52.538;13.266;2024-02-26T09:59:15;20.90;;;14.63;;
17686;SDS011;8962;52.538;13.266;2024-02-26T10:01:44;23.33;;;15.25;;
17686;SDS011;8962;52.538;13.266;2024-02-26T10:04:12;24.50;;;17.08;;
17686;SDS011;8962;52.538;13.266;2024-02-26T10:06:41;22.38;;;16.10;;
17686;SDS011;8962;52.538;13.266;2024-02-26T10:09:10;24.63;;;16.20;;
17686;SDS011;8962;52.538;13.266;2024-02-26T10:11:38;22.90;;;15.73;;
17686;SDS011;8962;52.538;13.266;2024-02-26T10:14:08;23.67;;;15.90;;
17686;SDS011;8962;52.538;13.266;2024-02-26T10:16:37;22.33;;;14.25;;
17686;SDS011;8962;52.538;13.266;2024-02-26T10:19:04;22.17;;;13.65;;
17686;SDS011;8962;52.538;13.266;2024-02-26T10:21:31;22.50;;;15.30;;
17686;SDS011;8962;52.538;13.266;2024-02-26T10:24:00;22.08;;;14.20;;
17686;SDS011;8962;52.538;13.266;2024-02-26T10:26:27;19.90;;;12.98;;
17686;SDS011;8962;52.538;13.266;2024-02-26T10:28:54;22.90;;;14.00;;
17686;SDS011;8962;52.538;13.266;2024-02-26T10:31:27;20.95;;;14.50;;
17686;SDS011;8962;52.538;13.266;2024-02-26T10:33:55;25.50;;;14.05;;
17686;SDS011;8962;52.538;13.266;2024-02-26T10:36:24;21.88;;;13.52;;
17686;SDS011;8962;52.538;13.266;2024-02-26T10:38:54;19.15;;;13.25;;
17686;SDS011;8962;52.538;13.266;2024-02-26T10:41:22;19.20;;;12.73;;
17686;SDS011;8962;52.538;13.266;2024-02-26T10:43:49;18.10;;;12.73;;
17686;SDS011;8962;52.538;13.266;2024-02-26T10:46:17;18.40;;;12.57;;
17686;SDS011;8962;52.538;13.266;2024-02-26T10:48:49;19.33;;;13.05;;
17686;SDS011;8962;52.538;13.266;2024-02-26T10:51:17;17.95;;;12.60;;
17686;SDS011;8962;52.538;13.266;2024-02-26T10:53:48;20.63;;;13.38;;
17686;SDS011;8962;52.538;13.266;2024-02-26T10:56:23;21.08;;;13.55;;
17686;SDS011;8962;52.538;13.266;2024-02-26T10:58:52;19.80;;;12.88;;
17686;SDS011;8962;52.538;13.266;2024-02-26T11:01:20;19.52;;;12.65;;
17686;SDS011;8962;52.538;13.266;2024-02-26T11:03:50;19.45;;;12.32;;
17686;SDS011;8962;52.538;13.266;2024-02-26T11:06:18;16.80;;;11.70;;
17686;SDS011;8962;52.538;13.266;2024-02-26T11:08:47;16.60;;;11.68;;
17686;SDS011;8962;52.538;13.266;2024-02-26T11:11:15;16.00;;;10.68;;
17686;SDS011;8962;52.538;13.266;2024-02-26T11:13:45;14.43;;;10.80;;
17686;SDS011;8962;52.538;13.266;2024-02-26T11:16:16;16.75;;;10.48;;
17686;SDS011;8962;52.538;13.266;2024-02-26T11:18:46;14.85;;;9.82;;
17686;SDS011;8962;52.538;13.266;2024-02-26T11:21:15;14.30;;;9.63;;
17686;SDS011;8962;52.538;13.266;2024-02-26T11:23:44;15.90;;;10.00;;
17686;SDS011;8962;52.538;13.266;2024-02-26T11:26:12;14.63;;;9.60;;
17686;SDS011;8962;52.538;13.266;2024-02-26T11:28:42;11.60;;;8.95;;
17686;SDS011;8962;52.538;13.266;2024-02-26T11:31:12;10.13;;;8.07;;
17686;SDS011;8962;52.538;13.266;2024-02-26T11:33:40;13.80;;;8.65;;
17686;SDS011;8962;52.538;13.266;2024-02-26T11:36:08;12.02;;;8.52;;
17686;SDS011;8962;52.538;13.266;2024-02-26T11:38:35;12.02;;;8.57;;
17686;SDS011;8962;52.538;13.266;2024-02-26T11:41:04;13.77;;;8.55;;
17686;SDS011;8962;52.538;13.266;2024-02-26T11:43:53;12.82;;;8.73;;
17686;SDS011;8962;52.538;13.266;2024-02-26T11:46:26;13.20;;;8.85;;
17686;SDS011;8962;52.538;13.266;2024-02-26T11:48:59;10.77;;;7.75;;
17686;SDS011;8962;52.538;13.266;2024-02-26T11:51:28;14.45;;;8.90;;
17686;SDS011;8962;52.538;13.266;2024-02-26T11:53:59;11.52;;;8.27;;
17686;SDS011;8962;52.538;13.266;2024-02-26T11:56:26;11.95;;;8.45;;
17686;SDS011;8962;52.538;13.266;2024-02-26T11:59:03;11.85;;;8.38;;
17686;SDS011;8962;52.538;13.266;2024-02-26T12:01:38;13.02;;;8.50;;
17686;SDS011;8962;52.538;13.266;2024-02-26T12:04:06;11.07;;;8.18;;
17686;SDS011;8962;52.538;13.266;2024-02-26T12:06:44;15.93;;;8.90;;
17686;SDS011;8962;52.538;13.266;2024-02-26T12:09:17;12.15;;;8.10;;
17686;SDS011;8962;52.538;13.266;2024-02-26T12:11:57;11.85;;;8.80;;
17686;SDS011;8962;52.538;13.266;2024-02-26T12:14:27;14.05;;;8.70;;
17686;SDS011;8962;52.538;13.266;2024-02-26T12:16:54;11.20;;;8.38;;
17686;SDS011;8962;52.538;13.266;2024-02-26T12:19:23;14.85;;;8.27;;
17686;SDS011;8962;52.538;13.266;2024-02-26T12:21:51;11.40;;;8.30;;
17686;SDS011;8962;52.538;13.266;2024-02-26T12:24:20;14.02;;;8.60;;
17686;SDS011;8962;52.538;13.266;2024-02-26T12:26:47;16.00;;;9.18;;
17686;SDS011;8962;52.538;13.266;2024-02-26T12:29:14;17.45;;;10.25;;
17686;SDS011;8962;52.538;13.266;2024-02-26T12:31:43;14.05;;;9.18;;
17686;SDS011;8962;52.538;13.266;2024-02-26T12:34:10;13.93;;;9.30;;
17686;SDS011;8962;52.538;13.266;2024-02-26T12:36:39;13.65;;;8.85;;
17686;SDS011;8962;52.538;13.266;2024-02-26T12:39:06;11.65;;;8.90;;
17686;SDS011;8962;52.538;13.266;2024-02-26T12:41:34;15.95;;;9.27;;
17686;SDS011;8962;52.538;13.266;2024-02-26T12:44:02;12.93;;;9.13;;
17686;SDS011;8962;52.538;13.266;2024-02-26T12:46:29;12.10;;;8.52;;
17686;SDS011;8962;52.538;13.266;2024-02-26T12:48:58;12.68;;;8.57;;
17686;SDS011;8962;52.538;13.266;2024-02-26T12:51:25;14.00;;;7.90;;
17686;SDS011;8962;52.538;13.266;2024-02-26T12:53:54;23.67;;;9.48;;
17686;SDS011;8962;52.538;13.266;2024-02-26T12:56:24;13.05;;;6.63;;
17686;SDS011;8962;52.538;13.266;2024-02-26T12:58:53;10.50;;;6.78;;
17686;SDS011;8962;52.538;13.266;2024-02-26T13:01:22;9.15;;;5.95;;
17686;SDS011;8962;52.538;13.266;2024-02-26T13:03:50;9.70;;;5.85;;
17686;SDS011;8962;52.538;13.266;2024-02-26T13:06:20;6.10;;;4.72;;
17686;SDS011;8962;52.538;13.266;2024-02-26T13:08:49;6.72;;;4.78;;
17686;SDS011;8962;52.538;13.266;2024-02-26T13:11:16;6.72;;;4.35;;
17686;SDS011;8962;52.538;13.266;2024-02-26T13:13:47;7.43;;;4.45;;
17686;SDS011;8962;52.538;13.266;2024-02-26T13:16:15;7.43;;;4.47;;
17686;SDS011;8962;52.538;13.266;2024-02-26T13:18:42;8.43;;;4.63;;
17686;SDS011;8962;52.538;13.266;2024-02-26T13:21:10;6.45;;;4.25;;
17686;SDS011;8962;52.538;13.266;2024-02-26T13:24:02;7.32;;;4.68;;
17686;SDS011;8962;52.538;13.266;2024-02-26T13:26:33;7.97;;;5.18;;
17686;SDS011;8962;52.538;13.266;2024-02-26T13:29:02;7.63;;;4.20;;
17686;SDS011;8962;52.538;13.266;2024-02-26T13:31:38;8.10;;;4.43;;
17686;SDS011;8962;52.538;13.266;2024-02-26T13:34:07;8.77;;;4.28;;
17686;SDS011;8962;52.538;13.266;2024-02-26T13:36:36;6.60;;;3.53;;
17686;SDS011;8962;52.538;13.266;2024-02-26T13:39:04;4.43;;;3.05;;
17686;SDS011;8962;52.538;13.266;2024-02-26T13:41:38;4.20;;;2.60;;
17686;SDS011;8962;52.538;13.266;2024-02-26T13:44:06;3.67;;;2.58;;
17686;SDS011;8962;52.538;13.266;2024-02-26T13:46:35;7.68;;;3.00;;
17686;SDS011;8962;52.538;13.266;2024-02-26T13:49:03;5.47;;;3.10;;
17686;SDS011;8962;52.538;13.266;2024-02-26T13:51:30;4.07;;;2.95;;
17686;SDS011;8962;52.538;13.266;2024-02-26T13:54:02;3.63;;;2.60;;
17686;SDS011;8962;52.538;13.266;2024-02-26T13:56:29;7.63;;;3.55;;
17686;SDS011;8962;52.538;13.266;2024-02-26T13:58:56;4.22;;;2.35;;
17686;SDS011;8962;52.538;13.266;2024-02-26T14:01:24;6.50;;;2.78;;
17686;SDS011;8962;52.538;13.266;2024-02-26T14:03:52;5.38;;;3.10;;
17686;SDS011;8962;52.538;13.266;2024-02-26T14:06:23;5.65;;;2.90;;
17686;SDS011;8962;52.538;13.266;2024-02-26T14:08:55;6.85;;;3.50;;
17686;SDS011;8962;52.538;13.266;2024-02-26T14:11:34;5.60;;;3.20;;
17686;SDS011;8962;52.538;13.266;2024-02-26T14:14:08;4.93;;;2.80;;
17686;SDS011;8962;52.538;13.266;2024-02-26T14:16:35;8.55;;;3.13;;
17686;SDS011;8962;52.538;13.266;2024-02-26T14:19:06;7.03;;;3.50;;
17686;SDS011;8962;52.538;13.266;2024-02-26T14:21:42;5.53;;;2.88;;
17686;SDS011;8962;52.538;13.266;2024-02-26T14:24:09;9.73;;;3.10;;
17686;SDS011;8962;52.538;13.266;2024-02-26T14:26:39;5.88;;;3.75;;
17686;SDS011;8962;52.538;13.266;2024-02-26T14:29:08;5.85;;;3.50;;
17686;SDS011;8962;52.538;13.266;2024-02-26T14:31:35;5.85;;;3.70;;
17686;SDS011;8962;52.538;13.266;2024-02-26T14:34:04;7.55;;;4.20;;